weather.gov     
National Weather Service

Terminal Aerodrome Forecast
NWS Homepage
This page is being discontinued on March 12, 2014.
The same data is available at this site. Please update your bookmarks.
Thank you, and we apologize for the inconvenience.
Please send an email to SR-SRH.Webmaster@noaa.gov with any concerns.


Current Version
Previous Version:    01  02  03  04  05  06  07  08  09  10  11  12  13  14  15  16  17  18  19  20  21  22  23  24  25  26  27  
[Printable]
503
FTUS43 KMPX 231100
TAFEAU
TAF
KEAU 231129Z 2312/2412 10006KT P6SM OVC200
     FM231600 14012KT P6SM SCT100 OVC200
     FM232100 14012G20KT P6SM SCT070 BKN100
     FM240000 13012G19KT 6SM -RA SCT025 OVC050
     FM240700 11012G20KT 4SM -RA BR SCT012 OVC025
     FM241000 11012G20KT 2SM RA BR OVC007=


U.S. Dept. of Commerce
NOAA National Weather Service
1325 East West Highway
Silver Spring, MD 20910
E-mail: w-nws.webmaster@noaa.gov
Page last modified: May 16, 2007
NATIONAL WEATHER SERVICE: for Safety, for Work, for Fun - FOR LIFE